Jericho, Mississippi
Current Conditions -  °F | °C
As of 3:53 AM on Monday 22 Dec 2014 (Local Time) from KTUP Reporting Station
Overcast Overcast  
Wind Chill: 50°   Ceiling: 800
Heat Index: 50°   Visibility: 10mi
Dew Point: 46°   Wind: 9mph
Humidity: 86%   Direction: 200°SSW
Pressure: 29.93"   Gusts: NA
Location:  34.5357°N, 88.6348°W
Report Text: KTUP 220953Z AUTO 20008KT 10SM OVC008 10/08 A2993 RMK AO2 SLP133 T01000078
Loading
Personal Weather Stations






























Interactive Weather Map New forecast layout! Learn more

10-Day Weather Forecast

Advertisements
Track Severe Weather on mobile